createdAt,value
2023-03-12T00:00:22.408Z,3.70
2023-03-12T00:04:10.942Z,3.97
2023-03-12T00:07:40.505Z,2.97
2023-03-12T00:11:10.863Z,3.55
2023-03-12T00:14:39.589Z,3.60
2023-03-12T00:18:07.729Z,4.10
2023-03-12T00:21:35.458Z,3.78
2023-03-12T00:25:06.488Z,3.30
2023-03-12T00:28:35.120Z,2.70
2023-03-12T00:32:03.567Z,3.80
2023-03-12T00:35:32.809Z,3.60
2023-03-12T00:39:01.491Z,3.22
2023-03-12T00:42:31.003Z,3.25
2023-03-12T00:45:59.983Z,2.90
2023-03-12T00:49:27.950Z,2.58
2023-03-12T00:52:55.888Z,2.85
2023-03-12T00:56:24.109Z,3.20
2023-03-12T00:59:53.268Z,2.88
2023-03-12T01:03:21.593Z,3.50
2023-03-12T01:10:18.576Z,2.83
2023-03-12T01:13:47.410Z,3.45
2023-03-12T01:17:16.840Z,2.92
2023-03-12T01:20:44.728Z,3.00
2023-03-12T01:24:12.889Z,3.28
2023-03-12T01:27:41.020Z,2.80
2023-03-12T01:31:09.998Z,2.95
2023-03-12T01:34:39.541Z,2.75
2023-03-12T01:38:08.545Z,2.50
2023-03-12T01:41:36.839Z,2.22
2023-03-12T01:45:06.417Z,2.35
2023-03-12T01:48:37.802Z,2.08
2023-03-12T01:52:12.103Z,2.03
2023-03-12T01:55:52.318Z,2.22
2023-03-12T01:59:21.797Z,1.80
2023-03-12T02:02:52.236Z,1.88
2023-03-12T02:06:30.756Z,1.88
2023-03-12T02:09:58.941Z,1.40
2023-03-12T02:16:55.332Z,2.17
2023-03-12T02:20:33.390Z,1.83
2023-03-12T02:24:09.558Z,2.03
2023-03-12T02:27:41.362Z,1.50
2023-03-12T02:31:11.275Z,1.75
2023-03-12T02:34:39.468Z,1.60
2023-03-12T02:38:22.488Z,1.70
2023-03-12T02:41:54.124Z,1.25
2023-03-12T02:45:26.111Z,1.83
2023-03-12T02:48:54.911Z,1.45
2023-03-12T02:52:22.971Z,1.10
2023-03-12T02:55:51.040Z,1.30
2023-03-12T02:59:21.942Z,1.15
2023-03-12T03:02:53.977Z,1.38
2023-03-12T03:06:21.962Z,1.17
2023-03-12T03:09:50.007Z,0.68
2023-03-12T03:13:18.316Z,0.95
2023-03-12T03:16:47.569Z,1.40
2023-03-12T03:20:15.792Z,1.25
2023-03-12T03:23:44.129Z,2.30
2023-03-12T03:36:15.167Z,0.73
2023-03-12T03:39:55.641Z,0.52
2023-03-12T03:43:24.237Z,0.60
2023-03-12T03:46:58.390Z,1.05
2023-03-12T03:50:29.522Z,0.88
2023-03-12T03:53:58.532Z,0.60
2023-03-12T03:57:28.429Z,1.00
2023-03-12T04:00:57.039Z,0.70
2023-03-12T04:04:25.297Z,1.02
2023-03-12T04:07:55.121Z,1.05
2023-03-12T04:11:25.951Z,0.70
2023-03-12T04:14:55.401Z,1.45
2023-03-12T04:18:23.213Z,0.82
2023-03-12T04:21:51.554Z,1.05
2023-03-12T04:25:28.599Z,1.27
2023-03-12T04:28:56.616Z,2.50
2023-03-12T04:32:24.703Z,0.75
2023-03-12T04:35:53.797Z,2.35
2023-03-12T04:39:24.649Z,0.90
2023-03-12T04:42:54.328Z,1.02
2023-03-12T04:46:22.812Z,0.77
2023-03-12T04:49:51.252Z,0.82
2023-03-12T04:53:19.111Z,0.70
2023-03-12T04:56:50.350Z,0.60
2023-03-12T05:00:20.673Z,0.77
2023-03-12T05:03:48.891Z,1.00
2023-03-12T05:07:17.141Z,1.00
2023-03-12T05:10:46.034Z,0.63
2023-03-12T05:14:19.956Z,0.80
2023-03-12T05:17:48.952Z,0.90
2023-03-12T05:21:17.875Z,0.50
2023-03-12T05:24:46.429Z,0.90
2023-03-12T05:28:14.688Z,1.63
2023-03-12T05:31:44.406Z,1.40
2023-03-12T05:35:13.840Z,0.93
2023-03-12T05:38:43.679Z,0.77
2023-03-12T05:42:18.588Z,1.02
2023-03-12T05:45:48.826Z,0.85
2023-03-12T05:49:17.630Z,0.45
2023-03-12T05:52:47.449Z,0.57
2023-03-12T05:56:16.701Z,0.73
2023-03-12T05:59:44.733Z,0.77
2023-03-12T06:03:14.831Z,0.82
2023-03-12T06:06:45.130Z,0.70
2023-03-12T06:10:13.459Z,0.65
2023-03-12T06:13:41.495Z,0.85
2023-03-12T06:17:11.699Z,0.90
2023-03-12T06:20:41.819Z,0.65
2023-03-12T06:24:10.282Z,0.70
2023-03-12T06:27:45.448Z,0.85
2023-03-12T06:31:14.161Z,1.23
2023-03-12T06:34:43.969Z,1.30
2023-03-12T06:38:12.414Z,0.93
2023-03-12T06:41:41.582Z,1.63
2023-03-12T06:45:10.262Z,1.92
2023-03-12T06:48:41.319Z,2.38
2023-03-12T06:52:11.912Z,1.38
2023-03-12T06:55:40.716Z,1.10
2023-03-12T06:59:08.764Z,1.40
2023-03-12T07:02:37.135Z,1.40
2023-03-12T07:06:06.090Z,2.17
2023-03-12T07:09:35.697Z,3.20
2023-03-12T07:13:03.763Z,1.70
2023-03-12T07:16:31.857Z,2.28
2023-03-12T07:20:00.051Z,3.10
2023-03-12T07:23:27.953Z,5.43
2023-03-12T07:26:57.815Z,4.88
2023-03-12T07:30:26.135Z,1.38
2023-03-12T07:37:22.786Z,1.30
2023-03-12T07:40:52.097Z,1.20
2023-03-12T07:44:23.226Z,2.03
2023-03-12T07:47:52.300Z,1.70
2023-03-12T07:51:20.302Z,1.58
2023-03-12T07:54:48.338Z,1.98
2023-03-12T07:58:16.828Z,1.88
2023-03-12T08:01:47.314Z,1.40
2023-03-12T08:05:15.153Z,1.40
2023-03-12T08:12:11.422Z,1.30
2023-03-12T08:19:08.547Z,1.30
2023-03-12T08:22:36.590Z,2.05
2023-03-12T08:26:05.707Z,1.70
2023-03-12T08:29:34.298Z,0.98
2023-03-12T08:33:02.438Z,1.30
2023-03-12T08:36:32.321Z,1.48
2023-03-12T08:40:00.373Z,1.90
2023-03-12T08:43:29.598Z,1.67
2023-03-12T08:46:58.372Z,1.88
2023-03-12T08:50:29.369Z,1.75
2023-03-12T08:53:58.731Z,2.53
2023-03-12T08:57:27.011Z,1.40
2023-03-12T09:00:56.097Z,3.72
2023-03-12T09:04:24.667Z,2.17
2023-03-12T09:07:54.773Z,1.65
2023-03-12T09:11:24.273Z,1.25
2023-03-12T09:15:08.266Z,1.55
2023-03-12T09:18:39.896Z,1.80
2023-03-12T09:22:07.716Z,1.60
2023-03-12T09:25:37.359Z,1.13
2023-03-12T09:29:05.672Z,1.48
2023-03-12T09:32:34.169Z,1.10
2023-03-12T09:36:02.572Z,1.10
2023-03-12T09:39:31.089Z,1.10
2023-03-12T09:43:01.547Z,1.33
2023-03-12T09:46:34.452Z,1.10
2023-03-12T09:50:07.189Z,1.63
2023-03-12T09:53:42.265Z,1.30
2023-03-12T09:57:17.689Z,1.33
2023-03-12T10:00:47.606Z,1.50
2023-03-12T10:04:37.790Z,2.17
2023-03-12T10:08:25.574Z,0.98
2023-03-12T10:12:10.621Z,0.82
2023-03-12T10:15:50.113Z,1.38
2023-03-12T10:19:31.491Z,1.33
2023-03-12T10:23:05.911Z,1.30
2023-03-12T10:26:40.031Z,1.33
2023-03-12T10:30:18.966Z,1.45
2023-03-12T10:33:49.678Z,0.82
2023-03-12T10:37:21.884Z,1.05
2023-03-12T10:40:49.686Z,1.10
2023-03-12T10:44:19.680Z,1.00
2023-03-12T10:48:03.330Z,1.40
2023-03-12T10:51:33.415Z,1.27
2023-03-12T10:55:23.383Z,1.20
2023-03-12T10:58:53.448Z,1.63
2023-03-12T11:02:37.666Z,1.63
2023-03-12T11:06:24.707Z,1.40
2023-03-12T11:10:21.287Z,1.20
2023-03-12T11:14:07.935Z,1.27
2023-03-12T11:17:36.158Z,0.90
2023-03-12T11:21:19.287Z,1.25
2023-03-12T11:25:06.115Z,1.17
2023-03-12T11:28:40.653Z,1.35
2023-03-12T11:32:16.592Z,1.70
2023-03-12T11:35:50.799Z,1.40
2023-03-12T11:39:25.484Z,1.40
2023-03-12T11:43:13.692Z,2.17
2023-03-12T11:46:53.302Z,1.30
2023-03-12T11:50:28.981Z,1.90
2023-03-12T11:54:31.109Z,2.92
2023-03-12T11:58:09.208Z,2.30
2023-03-12T12:01:46.880Z,1.60
2023-03-12T12:09:15.171Z,2.03
2023-03-12T12:12:53.288Z,2.10
2023-03-12T12:16:44.685Z,1.25
2023-03-12T12:20:30.105Z,2.67
2023-03-12T12:24:06.416Z,2.22
2023-03-12T12:27:43.842Z,1.38
2023-03-12T12:31:28.989Z,1.75
2023-03-12T12:35:14.689Z,2.50
2023-03-12T12:38:48.818Z,2.42
2023-03-12T12:42:22.643Z,1.95
2023-03-12T12:45:53.528Z,1.52
2023-03-12T12:49:25.849Z,2.70
2023-03-12T12:53:01.284Z,1.45
2023-03-12T13:00:16.075Z,2.05
2023-03-12T13:03:47.072Z,2.60
2023-03-12T13:07:34.169Z,2.88
2023-03-12T13:11:18.294Z,4.15
2023-03-12T13:14:51.507Z,1.52
2023-03-12T13:18:26.053Z,3.78
2023-03-12T13:22:16.063Z,2.35
2023-03-12T13:25:52.403Z,2.08
2023-03-12T13:29:39.071Z,1.45
2023-03-12T13:33:15.385Z,1.45
2023-03-12T13:36:45.411Z,1.10
2023-03-12T13:40:37.522Z,1.08
2023-03-12T13:44:31.378Z,3.58
2023-03-12T13:48:04.993Z,1.35
2023-03-12T13:51:47.696Z,1.90
2023-03-12T13:55:22.197Z,2.40
2023-03-12T13:58:55.716Z,2.05
2023-03-12T14:02:28.601Z,1.80
2023-03-12T14:06:10.868Z,2.60
2023-03-12T14:09:49.215Z,1.35
2023-03-12T14:13:32.997Z,1.77
2023-03-12T14:17:06.730Z,1.98
2023-03-12T14:20:38.998Z,1.33
2023-03-12T14:24:12.041Z,1.13
2023-03-12T14:27:40.744Z,1.20
2023-03-12T14:31:14.439Z,1.65
2023-03-12T14:34:52.471Z,1.50
2023-03-12T14:38:26.832Z,1.15
2023-03-12T14:42:00.272Z,1.50
2023-03-12T14:45:28.956Z,2.25
2023-03-12T14:48:57.705Z,1.63
2023-03-12T14:52:30.830Z,1.17
2023-03-12T14:56:05.131Z,1.55
2023-03-12T14:59:38.186Z,1.70
2023-03-12T15:03:16.246Z,1.17
2023-03-12T15:10:21.504Z,1.38
2023-03-12T15:13:59.892Z,2.00
2023-03-12T15:17:30.838Z,2.40
2023-03-12T15:20:59.849Z,1.88
2023-03-12T15:29:28.633Z,1.70
2023-03-12T15:33:08.253Z,2.33
2023-03-12T15:36:37.482Z,2.83
2023-03-12T15:40:21.262Z,2.53
2023-03-12T15:43:57.042Z,2.63
2023-03-12T15:47:26.437Z,1.80
2023-03-12T15:50:57.093Z,2.35
2023-03-12T15:54:27.451Z,1.70
2023-03-12T15:57:56.345Z,2.25
